Time;durP1;ratioP1;P1;durP2;ratioP2;P2;SDS_P1;SDS_P2;PMS_P1;PMS_P2;Temp;Humidity;BMP_temperature;BMP_pressure;BME280_temperature;BME280_humidity;BME280_pressure;Samples;Min_cycle;Max_cycle;Signal;HPM_P1;HPM_P2
2023/09/12 00:02:09;;;;;;;29.67;20.10;;;19.80;99.90;;;;;;5019106;28;20127;-79
2023/09/12 00:04:35;;;;;;;27.42;20.27;;;19.80;99.90;;;;;;5038954;28;20040;-78
2023/09/12 00:07:01;;;;;;;29.92;21.50;;;19.80;99.90;;;;;;5025665;28;20060;-78
2023/09/12 00:09:27;;;;;;;26.75;20.60;;;19.80;99.90;;;;;;5046631;28;20040;-77
2023/09/12 00:11:54;;;;;;;27.48;21.63;;;19.80;99.90;;;;;;5027296;28;20041;-77
2023/09/12 00:14:21;;;;;;;24.55;18.63;;;19.60;99.90;;;;;;5047275;28;20036;-78
2023/09/12 00:16:47;;;;;;;28.17;19.35;;;19.80;99.90;;;;;;5035714;28;20056;-77
2023/09/12 00:19:14;;;;;;;28.05;18.92;;;19.80;99.90;;;;;;5042950;28;20049;-77
2023/09/12 00:21:41;;;;;;;24.10;18.55;;;19.70;99.90;;;;;;5029504;28;20055;-77
2023/09/12 00:24:07;;;;;;;20.92;17.35;;;19.70;99.90;;;;;;5022693;28;20049;-77
2023/09/12 00:26:33;;;;;;;22.25;17.33;;;19.70;99.90;;;;;;5048098;28;20044;-76
2023/09/12 00:28:58;;;;;;;20.92;16.95;;;19.70;99.90;;;;;;5020939;28;20056;-75
2023/09/12 00:31:24;;;;;;;22.48;17.17;;;19.70;99.90;;;;;;5022705;28;20036;-75
2023/09/12 00:33:50;;;;;;;25.80;17.35;;;19.70;99.90;;;;;;5065091;28;20043;-76
2023/09/12 00:36:16;;;;;;;24.50;17.48;;;19.70;99.90;;;;;;5033873;28;20182;-76
2023/09/12 00:38:41;;;;;;;23.55;17.80;;;19.70;99.90;;;;;;5020761;28;20056;-80
2023/09/12 00:41:07;;;;;;;23.48;17.30;;;19.70;99.90;;;;;;5037239;28;20182;-79
2023/09/12 00:43:34;;;;;;;22.95;19.02;;;19.70;99.90;;;;;;5039652;28;20128;-80
2023/09/12 00:46:00;;;;;;;24.38;18.33;;;19.70;99.90;;;;;;5050850;28;20056;-78
2023/09/12 00:48:26;;;;;;;24.88;19.27;;;19.70;99.90;;;;;;5035119;28;20163;-78
2023/09/12 00:50:54;;;;;;;28.65;21.23;;;19.70;99.90;;;;;;5037159;28;20122;-78
2023/09/12 00:53:21;;;;;;;29.30;21.42;;;19.70;99.90;;;;;;5001677;28;20063;-78
2023/09/12 00:55:57;;;;;;;33.25;24.33;;;19.70;99.90;;;;;;5038879;28;20044;-76
2023/09/12 00:58:25;;;;;;;34.22;23.05;;;19.70;99.90;;;;;;5021301;28;20130;-77
2023/09/12 01:00:51;;;;;;;35.08;25.63;;;19.70;99.90;;;;;;5022442;28;20094;-80
2023/09/12 01:03:17;;;;;;;34.17;24.77;;;19.70;99.90;;;;;;5035718;28;20058;-81
2023/09/12 01:05:44;;;;;;;32.75;23.40;;;19.60;99.90;;;;;;5014406;28;20056;-80
2023/09/12 01:08:10;;;;;;;30.50;23.45;;;19.80;99.90;;;;;;5039531;28;20087;-80
2023/09/12 01:10:36;;;;;;;32.17;22.95;;;19.60;99.90;;;;;;5024141;28;20126;-79
2023/09/12 01:13:02;;;;;;;34.83;24.83;;;19.60;99.90;;;;;;5028979;28;20490;-80
2023/09/12 01:15:28;;;;;;;30.42;22.40;;;19.60;99.90;;;;;;5043729;28;20049;-78
2023/09/12 01:17:56;;;;;;;30.38;21.95;;;19.60;99.90;;;;;;5043877;28;20045;-79
2023/09/12 01:20:33;;;;;;;29.65;22.33;;;19.60;99.90;;;;;;5049354;28;20563;-79
2023/09/12 01:23:05;;;;;;;32.70;23.95;;;19.60;99.90;;;;;;5033517;28;20083;-79
2023/09/12 01:26:02;;;;;;;30.08;22.60;;;19.60;99.90;;;;;;5035985;28;20079;-79
2023/09/12 01:28:34;;;;;;;31.50;23.75;;;19.60;99.90;;;;;;5037385;28;20052;-80
2023/09/12 01:31:02;;;;;;;33.17;24.35;;;19.50;99.90;;;;;;5031471;28;20093;-79
2023/09/12 01:33:29;;;;;;;29.98;23.52;;;19.50;99.90;;;;;;5051506;28;20144;-79
2023/09/12 01:35:55;;;;;;;32.97;24.17;;;19.50;99.90;;;;;;5037334;28;20047;-79
2023/09/12 01:38:22;;;;;;;39.72;26.10;;;19.50;99.90;;;;;;5049681;28;20043;-79
2023/09/12 01:40:52;;;;;;;36.28;25.83;;;19.50;99.90;;;;;;5015496;28;20068;-79
2023/09/12 01:43:21;;;;;;;39.35;25.25;;;19.50;99.90;;;;;;5012111;28;20071;-79
2023/09/12 01:45:54;;;;;;;35.05;25.17;;;19.50;99.90;;;;;;5029981;28;20044;-79
2023/09/12 01:48:23;;;;;;;35.45;24.88;;;19.50;99.90;;;;;;5035094;28;20047;-79
2023/09/12 01:50:50;;;;;;;35.90;25.23;;;19.50;99.90;;;;;;5017873;28;20231;-79
2023/09/12 01:53:16;;;;;;;35.83;25.73;;;19.40;99.90;;;;;;5035029;28;20716;-76
2023/09/12 01:55:44;;;;;;;32.85;24.55;;;19.40;99.90;;;;;;5050829;28;20097;-76
2023/09/12 01:58:11;;;;;;;31.02;24.25;;;19.40;99.90;;;;;;5034367;28;20410;-79
2023/09/12 02:00:39;;;;;;;34.53;25.05;;;19.40;99.90;;;;;;5036011;28;20040;-79
2023/09/12 02:03:05;;;;;;;34.65;24.48;;;19.40;99.90;;;;;;5041637;28;20051;-77
2023/09/12 02:05:31;;;;;;;33.25;24.00;;;19.30;99.90;;;;;;5031741;28;20040;-78
2023/09/12 02:07:57;;;;;;;34.88;23.58;;;19.40;99.90;;;;;;5042254;28;20032;-77
2023/09/12 02:10:22;;;;;;;30.73;24.45;;;19.30;99.90;;;;;;5040662;28;20981;-77
2023/09/12 02:12:48;;;;;;;32.83;24.88;;;19.30;99.90;;;;;;5050747;28;20746;-78
2023/09/12 02:15:15;;;;;;;36.13;25.63;;;19.30;99.90;;;;;;5018161;28;20534;-78
2023/09/12 02:17:41;;;;;;;33.80;24.25;;;19.30;99.90;;;;;;5041769;28;20040;-77
2023/09/12 02:20:08;;;;;;;34.15;25.98;;;19.20;99.90;;;;;;5041566;28;20100;-78
2023/09/12 02:22:34;;;;;;;34.28;25.15;;;19.20;99.90;;;;;;5039611;28;20044;-77
2023/09/12 02:25:00;;;;;;;34.95;26.95;;;19.20;99.90;;;;;;5024307;28;20135;-78
2023/09/12 02:27:25;;;;;;;41.25;27.10;;;19.20;99.90;;;;;;5027309;28;20064;-78
2023/09/12 02:29:52;;;;;;;35.08;25.27;;;19.10;99.90;;;;;;5039875;28;20510;-77
2023/09/12 02:32:18;;;;;;;34.90;25.50;;;19.10;99.90;;;;;;5021678;28;20051;-77
2023/09/12 02:34:45;;;;;;;31.48;24.30;;;19.00;99.90;;;;;;5041937;28;20051;-78
2023/09/12 02:37:11;;;;;;;32.63;23.35;;;19.00;99.90;;;;;;5020890;28;20422;-78
2023/09/12 02:39:36;;;;;;;33.67;24.55;;;19.00;99.90;;;;;;5028220;28;20105;-79
2023/09/12 02:42:02;;;;;;;34.53;24.90;;;19.00;99.90;;;;;;5034748;28;20075;-79
2023/09/12 02:44:28;;;;;;;32.38;23.60;;;18.90;99.90;;;;;;5016040;28;20554;-79
2023/09/12 02:46:54;;;;;;;35.58;26.50;;;18.90;99.90;;;;;;5032506;28;20140;-79
2023/09/12 02:49:20;;;;;;;34.05;24.33;;;18.90;99.90;;;;;;5050160;28;20655;-80
2023/09/12 02:51:46;;;;;;;32.35;25.08;;;18.90;99.90;;;;;;5032471;28;20047;-77
2023/09/12 02:54:12;;;;;;;34.13;24.45;;;18.80;99.90;;;;;;5011359;28;20056;-78
2023/09/12 02:56:37;;;;;;;32.63;25.05;;;18.80;99.90;;;;;;5021117;28;20051;-78
2023/09/12 02:59:04;;;;;;;36.25;25.45;;;18.70;99.90;;;;;;5033718;28;20097;-77
2023/09/12 03:01:30;;;;;;;36.28;26.20;;;18.70;99.90;;;;;;5014552;28;20050;-77
2023/09/12 03:03:57;;;;;;;33.17;24.02;;;18.60;99.90;;;;;;5050828;28;20048;-80
2023/09/12 03:06:23;;;;;;;31.73;25.02;;;18.40;99.90;;;;;;5018438;28;20389;-79
2023/09/12 03:08:50;;;;;;;31.65;23.80;;;18.50;99.90;;;;;;5015909;28;20044;-80
2023/09/12 03:11:21;;;;;;;34.58;24.85;;;18.50;99.90;;;;;;5034059;28;20049;-79
2023/09/12 03:13:47;;;;;;;31.77;23.70;;;18.50;99.90;;;;;;5001811;28;20048;-79
2023/09/12 03:16:14;;;;;;;31.48;24.48;;;18.40;99.90;;;;;;5011302;28;20048;-80
2023/09/12 03:18:42;;;;;;;32.58;24.80;;;18.40;99.90;;;;;;5030521;28;20468;-80
2023/09/12 03:21:08;;;;;;;33.78;25.65;;;18.40;99.90;;;;;;5027121;28;20487;-80
2023/09/12 03:23:33;;;;;;;35.30;25.10;;;18.40;99.90;;;;;;5030499;28;20052;-80
2023/09/12 03:26:04;;;;;;;30.13;23.58;;;18.40;99.90;;;;;;5011690;28;20055;-80
2023/09/12 03:28:30;;;;;;;34.88;25.05;;;18.40;99.90;;;;;;5033419;28;20056;-80
2023/09/12 03:31:13;;;;;;;29.05;22.75;;;18.40;99.90;;;;;;5045255;28;20368;-77
2023/09/12 03:33:40;;;;;;;29.42;22.95;;;18.40;99.90;;;;;;5024729;28;20114;-77
2023/09/12 03:36:07;;;;;;;31.25;24.17;;;18.30;99.90;;;;;;5029293;28;20074;-76
2023/09/12 03:38:33;;;;;;;31.77;22.92;;;18.30;99.90;;;;;;5039550;28;20127;-77
2023/09/12 03:40:59;;;;;;;34.67;24.60;;;18.30;99.90;;;;;;5039760;28;20129;-77
2023/09/12 03:43:25;;;;;;;30.05;23.00;;;18.40;99.90;;;;;;5035134;28;20489;-77
2023/09/12 03:45:51;;;;;;;30.67;23.42;;;18.30;99.90;;;;;;5035873;28;20079;-76
2023/09/12 03:48:17;;;;;;;29.42;21.42;;;18.30;99.90;;;;;;5013729;28;20116;-76
2023/09/12 03:50:42;;;;;;;28.23;21.90;;;18.30;99.90;;;;;;5038089;28;20376;-76
2023/09/12 03:53:09;;;;;;;30.63;22.00;;;18.30;99.90;;;;;;5054413;28;20067;-77
2023/09/12 03:55:35;;;;;;;27.67;21.85;;;18.30;99.90;;;;;;5034561;28;20040;-77
2023/09/12 03:58:00;;;;;;;31.88;23.48;;;18.30;99.90;;;;;;5035813;28;20590;-77
2023/09/12 04:00:26;;;;;;;31.48;21.95;;;18.30;99.90;;;;;;5038498;28;20475;-76
2023/09/12 04:02:58;;;;;;;30.23;23.83;;;18.30;99.90;;;;;;5036876;28;20071;-74
2023/09/12 04:05:25;;;;;;;28.55;22.90;;;18.20;99.90;;;;;;5052465;28;20144;-74
2023/09/12 04:07:51;;;;;;;30.52;23.83;;;18.20;99.90;;;;;;5042676;28;20062;-76
2023/09/12 04:10:18;;;;;;;32.80;24.45;;;18.20;99.90;;;;;;5045000;28;20052;-77
2023/09/12 04:12:44;;;;;;;33.05;24.27;;;18.10;99.90;;;;;;5044807;28;20052;-77
2023/09/12 04:15:10;;;;;;;30.95;22.85;;;18.10;99.90;;;;;;5038870;28;20411;-76
2023/09/12 04:17:35;;;;;;;27.85;22.90;;;18.10;99.90;;;;;;5022724;28;20067;-73
2023/09/12 04:20:01;;;;;;;33.38;24.20;;;18.10;99.90;;;;;;5023947;28;21981;-78
2023/09/12 04:22:28;;;;;;;29.73;22.75;;;18.00;99.90;;;;;;5025308;28;20438;-77
2023/09/12 04:24:54;;;;;;;35.58;25.48;;;18.00;99.90;;;;;;5038711;28;20060;-77
2023/09/12 04:27:20;;;;;;;29.30;22.75;;;18.00;99.90;;;;;;5027049;28;20044;-77
2023/09/12 04:29:51;;;;;;;35.30;25.13;;;18.00;99.90;;;;;;5061686;28;20054;-77
2023/09/12 04:32:23;;;;;;;31.27;23.58;;;18.00;99.90;;;;;;5045323;28;20036;-77
2023/09/12 04:34:49;;;;;;;31.52;24.33;;;18.00;99.90;;;;;;5032150;28;20045;-77
2023/09/12 04:37:15;;;;;;;35.90;24.95;;;18.00;99.90;;;;;;5035471;28;20150;-77
2023/09/12 04:39:41;;;;;;;37.40;24.70;;;18.00;99.90;;;;;;5030706;28;20499;-77
2023/09/12 04:42:06;;;;;;;34.58;24.55;;;18.00;99.90;;;;;;5054292;28;20039;-76
2023/09/12 04:44:36;;;;;;;32.88;24.92;;;18.00;99.90;;;;;;5037687;28;20798;-74
2023/09/12 04:47:02;;;;;;;33.60;24.13;;;18.00;99.90;;;;;;5030557;28;20040;-74
2023/09/12 04:49:31;;;;;;;37.65;24.83;;;18.00;99.90;;;;;;5050801;28;20040;-75
2023/09/12 04:51:57;;;;;;;33.17;23.63;;;18.00;99.90;;;;;;5055510;28;20048;-75
2023/09/12 04:54:23;;;;;;;32.42;24.27;;;18.10;99.90;;;;;;5034332;28;20075;-77
2023/09/12 04:56:49;;;;;;;33.90;24.63;;;18.10;99.90;;;;;;5037914;28;20056;-76
2023/09/12 04:59:15;;;;;;;41.08;26.27;;;18.10;99.90;;;;;;5039417;28;20052;-76
2023/09/12 05:01:41;;;;;;;34.22;24.52;;;18.10;99.90;;;;;;5033388;28;20783;-74
2023/09/12 05:04:06;;;;;;;34.45;25.15;;;18.20;99.90;;;;;;5019517;28;20047;-73
2023/09/12 05:06:32;;;;;;;37.00;23.35;;;18.10;99.90;;;;;;5016172;28;20044;-74
2023/09/12 05:08:58;;;;;;;46.80;25.40;;;18.20;99.90;;;;;;5039753;28;20052;-74
2023/09/12 05:11:24;;;;;;;49.22;26.10;;;18.20;99.90;;;;;;5046552;28;20125;-75
2023/09/12 05:13:51;;;;;;;50.35;27.55;;;18.30;99.90;;;;;;5012527;28;20055;-75
2023/09/12 05:16:17;;;;;;;36.58;26.77;;;18.30;99.90;;;;;;5018574;28;20135;-75
2023/09/12 05:18:43;;;;;;;38.22;25.58;;;18.40;99.90;;;;;;5047745;28;20040;-75
2023/09/12 05:21:09;;;;;;;41.53;26.20;;;18.50;99.90;;;;;;5045152;28;20090;-74
2023/09/12 05:23:35;;;;;;;40.67;24.23;;;18.70;99.90;;;;;;5007872;28;21292;-75
2023/09/12 05:26:01;;;;;;;39.67;25.88;;;18.80;99.90;;;;;;5035523;28;20239;-75
2023/09/12 05:28:26;;;;;;;35.00;23.17;;;18.90;99.90;;;;;;5028860;28;20135;-76
2023/09/12 05:30:53;;;;;;;38.78;22.83;;;19.00;99.90;;;;;;5020238;28;20051;-75
2023/09/12 05:33:19;;;;;;;39.35;25.20;;;19.10;99.90;;;;;;5036890;28;20360;-76
2023/09/12 05:35:44;;;;;;;38.35;24.48;;;19.20;99.90;;;;;;5052334;28;20143;-75
2023/09/12 05:38:11;;;;;;;35.45;22.77;;;19.30;99.90;;;;;;5021761;28;20049;-75
2023/09/12 05:40:37;;;;;;;38.35;22.60;;;19.30;99.90;;;;;;5033058;28;20091;-75
2023/09/12 05:43:03;;;;;;;35.22;22.38;;;19.40;99.90;;;;;;5028933;28;20168;-75
2023/09/12 05:45:32;;;;;;;38.65;22.75;;;19.40;99.90;;;;;;5036658;28;20598;-75
2023/09/12 05:47:59;;;;;;;34.55;23.02;;;19.50;99.90;;;;;;5009452;28;20048;-76
2023/09/12 05:50:26;;;;;;;33.72;23.05;;;19.50;99.90;;;;;;5026860;28;20163;-75
2023/09/12 05:52:52;;;;;;;34.22;23.10;;;19.60;99.90;;;;;;4993622;28;20060;-76
2023/09/12 05:55:18;;;;;;;29.50;21.90;;;19.60;99.90;;;;;;5050526;28;20502;-75
2023/09/12 05:57:44;;;;;;;36.22;23.95;;;19.60;99.90;;;;;;5043038;28;20048;-75
2023/09/12 06:00:11;;;;;;;35.75;22.75;;;19.70;99.90;;;;;;5050447;28;20158;-75
2023/09/12 06:02:39;;;;;;;33.25;22.83;;;19.60;99.90;;;;;;5037965;28;20052;-75
2023/09/12 06:05:06;;;;;;;36.15;22.00;;;19.70;99.90;;;;;;5004661;28;20050;-75
2023/09/12 06:07:32;;;;;;;29.27;20.60;;;19.80;99.90;;;;;;5025679;28;20051;-75
2023/09/12 06:09:58;;;;;;;34.17;21.05;;;19.90;99.90;;;;;;5014747;28;20125;-75
2023/09/12 06:12:24;;;;;;;32.70;20.45;;;19.90;99.90;;;;;;5033183;28;20037;-76
2023/09/12 06:14:54;;;;;;;31.10;20.13;;;20.00;99.90;;;;;;5033222;28;20143;-78
2023/09/12 06:17:19;;;;;;;33.83;20.52;;;20.00;99.90;;;;;;5025410;28;20597;-76
2023/09/12 06:19:47;;;;;;;30.50;19.77;;;20.10;99.90;;;;;;5018174;28;20060;-74
2023/09/12 06:22:13;;;;;;;28.38;18.50;;;20.10;99.90;;;;;;5052355;28;20070;-76
2023/09/12 06:24:39;;;;;;;28.17;17.83;;;20.20;99.90;;;;;;5033915;28;20678;-76
2023/09/12 06:27:07;;;;;;;31.60;18.90;;;20.20;99.90;;;;;;5014361;28;21165;-76
2023/09/12 06:29:33;;;;;;;25.90;17.48;;;20.30;99.90;;;;;;5032799;28;20041;-76
2023/09/12 06:31:59;;;;;;;27.52;18.23;;;20.30;99.90;;;;;;5028504;28;20402;-76
2023/09/12 06:34:25;;;;;;;29.85;17.30;;;20.30;99.90;;;;;;5012018;28;20056;-76
2023/09/12 06:36:57;;;;;;;28.15;16.73;;;20.40;99.90;;;;;;5040676;28;20052;-75
2023/09/12 06:39:24;;;;;;;28.55;17.15;;;20.40;99.90;;;;;;5005435;28;20067;-76
2023/09/12 06:41:50;;;;;;;24.15;16.23;;;20.40;99.90;;;;;;5011302;28;20045;-75
2023/09/12 06:44:16;;;;;;;29.83;17.30;;;20.50;99.90;;;;;;5032630;28;20041;-76
2023/09/12 06:46:41;;;;;;;25.48;17.35;;;20.60;99.90;;;;;;5015780;28;20052;-75
2023/09/12 06:49:07;;;;;;;23.77;16.00;;;20.60;99.90;;;;;;5034675;28;20632;-75
2023/09/12 06:51:33;;;;;;;28.38;16.58;;;20.60;99.90;;;;;;5009863;28;20571;-74
2023/09/12 06:53:59;;;;;;;24.27;15.55;;;20.60;99.90;;;;;;5035110;28;20484;-76
2023/09/12 06:56:25;;;;;;;28.45;15.07;;;20.70;99.90;;;;;;5019804;28;20502;-75
2023/09/12 06:58:53;;;;;;;27.27;14.68;;;20.70;99.90;;;;;;5053245;28;20060;-74
2023/09/12 07:01:19;;;;;;;23.67;15.85;;;20.80;99.90;;;;;;5030140;28;20067;-73
2023/09/12 07:03:44;;;;;;;23.08;14.80;;;20.80;99.90;;;;;;4992552;28;20055;-73
2023/09/12 07:06:10;;;;;;;21.70;15.48;;;20.90;99.90;;;;;;5050819;28;20048;-74
2023/09/12 07:08:36;;;;;;;25.15;16.95;;;21.00;99.90;;;;;;5010019;28;20700;-74
2023/09/12 07:11:05;;;;;;;28.90;16.45;;;21.00;99.90;;;;;;5013453;28;20127;-74
2023/09/12 07:13:35;;;;;;;26.95;16.52;;;21.10;99.90;;;;;;5033821;28;20395;-75
2023/09/12 07:16:03;;;;;;;27.65;16.75;;;21.10;99.90;;;;;;5021927;28;20048;-75
2023/09/12 07:18:32;;;;;;;26.92;15.95;;;21.20;99.90;;;;;;5039487;28;20048;-74
2023/09/12 07:21:03;;;;;;;26.02;16.00;;;21.20;99.90;;;;;;5036260;28;20099;-75
2023/09/12 07:23:29;;;;;;;24.83;14.38;;;21.20;99.90;;;;;;5017899;28;20048;-74
2023/09/12 07:25:59;;;;;;;28.73;16.02;;;21.20;99.90;;;;;;5038564;28;20044;-74
2023/09/12 07:28:30;;;;;;;26.08;15.88;;;21.20;99.90;;;;;;5015886;28;20048;-74
2023/09/12 07:30:55;;;;;;;25.48;15.27;;;21.10;99.90;;;;;;5039600;28;20723;-74
2023/09/12 07:33:21;;;;;;;29.98;17.13;;;21.20;99.90;;;;;;5023624;28;20517;-75
2023/09/12 07:35:53;;;;;;;29.05;16.88;;;21.20;99.90;;;;;;5022868;28;20053;-73
2023/09/12 07:38:20;;;;;;;27.15;15.45;;;21.20;99.90;;;;;;5038471;28;20094;-73
2023/09/12 07:40:46;;;;;;;27.65;17.23;;;21.20;99.90;;;;;;5033089;28;20052;-74
2023/09/12 07:43:12;;;;;;;25.98;15.52;;;21.20;99.90;;;;;;5027324;28;20589;-74
2023/09/12 07:45:38;;;;;;;24.80;16.58;;;21.20;99.90;;;;;;5031906;28;20065;-74
2023/09/12 07:48:08;;;;;;;27.63;15.88;;;21.20;99.90;;;;;;5024549;28;20590;-74
2023/09/12 07:50:34;;;;;;;30.40;16.25;;;21.30;99.90;;;;;;5047038;28;20083;-73
2023/09/12 07:53:00;;;;;;;21.38;14.70;;;21.30;99.90;;;;;;5040816;28;20094;-76
2023/09/12 07:55:30;;;;;;;22.60;12.73;;;21.30;99.90;;;;;;5058423;28;20068;-78
2023/09/12 07:57:55;;;;;;;24.35;12.77;;;21.40;99.90;;;;;;5034082;28;20056;-74
2023/09/12 08:00:21;;;;;;;19.13;11.95;;;21.50;99.90;;;;;;5040170;28;20510;-75
2023/09/12 08:02:50;;;;;;;18.02;10.82;;;21.60;99.90;;;;;;5036619;28;20895;-76
2023/09/12 08:05:16;;;;;;;17.80;11.05;;;21.70;99.90;;;;;;5015907;28;20486;-74
2023/09/12 08:07:42;;;;;;;16.85;10.45;;;21.70;99.90;;;;;;5037418;28;20219;-74
2023/09/12 08:10:08;;;;;;;19.38;10.23;;;21.80;99.90;;;;;;5032268;28;20786;-75
2023/09/12 08:12:35;;;;;;;17.90;10.48;;;22.20;99.90;;;;;;5049253;28;20048;-74
2023/09/12 08:15:01;;;;;;;18.20;9.27;;;22.30;99.90;;;;;;5030569;28;20073;-74
2023/09/12 08:17:27;;;;;;;16.67;9.65;;;22.60;99.90;;;;;;5030091;28;20140;-75
2023/09/12 08:19:59;;;;;;;18.05;9.73;;;22.90;99.90;;;;;;5037246;28;20056;-75
2023/09/12 08:22:24;;;;;;;17.98;9.68;;;23.20;99.80;;;;;;5054382;28;20435;-74
2023/09/12 08:24:50;;;;;;;14.40;7.85;;;23.50;99.00;;;;;;5041521;28;20080;-74
2023/09/12 08:27:16;;;;;;;13.73;8.05;;;23.70;98.30;;;;;;5018890;28;20410;-75
2023/09/12 08:29:44;;;;;;;15.68;8.43;;;23.80;97.60;;;;;;5054228;28;20447;-76
2023/09/12 08:32:10;;;;;;;13.02;8.13;;;23.80;97.30;;;;;;5012835;28;20175;-74
2023/09/12 08:34:42;;;;;;;10.52;8.40;;;23.70;97.10;;;;;;5030413;28;20040;-74
2023/09/12 08:37:08;;;;;;;14.80;9.25;;;23.60;97.20;;;;;;5013812;28;20049;-75
2023/09/12 08:39:43;;;;;;;16.15;8.65;;;23.70;97.10;;;;;;5047616;28;20534;-74
2023/09/12 08:42:16;;;;;;;13.68;8.95;;;23.40;96.70;;;;;;5029366;28;20048;-74
2023/09/12 08:44:43;;;;;;;18.80;9.93;;;23.40;97.00;;;;;;5042895;28;20059;-75
2023/09/12 08:47:10;;;;;;;21.83;11.43;;;23.50;96.90;;;;;;5044041;28;20048;-75
2023/09/12 08:49:37;;;;;;;15.93;10.60;;;23.70;96.50;;;;;;5048272;28;20144;-75
2023/09/12 08:52:05;;;;;;;15.88;9.68;;;23.90;96.00;;;;;;5039812;28;21661;-75
2023/09/12 08:54:32;;;;;;;15.90;9.80;;;24.00;95.50;;;;;;5049158;28;20495;-76
2023/09/12 08:56:58;;;;;;;19.98;10.70;;;24.10;94.90;;;;;;5053512;28;20048;-76
2023/09/12 08:59:24;;;;;;;19.98;12.02;;;24.00;94.50;;;;;;5050969;28;20066;-76
2023/09/12 09:01:52;;;;;;;18.30;12.18;;;23.90;94.40;;;;;;5046440;28;20112;-74
2023/09/12 09:04:19;;;;;;;15.75;9.90;;;23.90;94.50;;;;;;5015903;28;20032;-75
2023/09/12 09:06:46;;;;;;;15.95;10.60;;;23.80;94.10;;;;;;5056026;28;20060;-75
2023/09/12 09:09:13;;;;;;;20.05;11.32;;;24.00;93.90;;;;;;5063256;28;20063;-75
2023/09/12 09:11:41;;;;;;;17.98;11.40;;;24.10;94.10;;;;;;5049508;28;20040;-75
2023/09/12 09:14:07;;;;;;;18.83;11.30;;;24.30;94.10;;;;;;5048421;28;20379;-75
2023/09/12 09:16:35;;;;;;;14.57;10.63;;;24.30;93.70;;;;;;5053450;28;20051;-75
2023/09/12 09:19:05;;;;;;;18.48;11.30;;;24.30;93.60;;;;;;5013844;28;20497;-76
2023/09/12 09:21:32;;;;;;;18.33;11.57;;;24.20;93.50;;;;;;5046969;28;21410;-75
2023/09/12 09:24:01;;;;;;;21.67;12.07;;;24.10;93.40;;;;;;5034737;28;20151;-76
2023/09/12 09:26:42;;;;;;;17.10;10.25;;;23.90;93.50;;;;;;5055413;28;20074;-75
2023/09/12 09:29:15;;;;;;;16.85;11.70;;;23.80;93.90;;;;;;5050788;28;20048;-76
2023/09/12 09:31:42;;;;;;;15.20;9.00;;;23.60;94.30;;;;;;5049700;28;20083;-75
2023/09/12 09:34:16;;;;;;;15.80;10.10;;;23.50;94.60;;;;;;5046368;28;20123;-75
2023/09/12 09:36:43;;;;;;;17.75;11.55;;;23.40;94.70;;;;;;5048291;28;20495;-75
2023/09/12 09:39:09;;;;;;;19.17;12.63;;;23.30;95.40;;;;;;5063063;28;20051;-76
2023/09/12 09:41:36;;;;;;;24.10;13.00;;;23.10;95.80;;;;;;5050461;28;20040;-76
2023/09/12 09:44:04;;;;;;;16.33;10.23;;;23.00;96.10;;;;;;5045142;28;20964;-75
2023/09/12 09:46:30;;;;;;;9.80;7.00;;;22.90;96.40;;;;;;5018068;28;20670;-75
2023/09/12 09:48:56;;;;;;;10.00;6.45;;;22.80;96.60;;;;;;5034156;28;20052;-75
2023/09/12 09:51:22;;;;;;;8.25;5.65;;;22.80;96.80;;;;;;5043785;28;20106;-75
2023/09/12 09:53:52;;;;;;;8.20;6.22;;;22.80;96.50;;;;;;5044313;28;20536;-76
2023/09/12 09:56:17;;;;;;;9.38;5.75;;;22.90;96.00;;;;;;5032116;28;20053;-76
2023/09/12 09:58:56;;;;;;;8.88;5.85;;;22.90;95.70;;;;;;5043615;28;20124;-76
2023/09/12 10:01:30;;;;;;;7.15;5.63;;;23.00;95.30;;;;;;5048239;28;20138;-76
2023/09/12 10:04:01;;;;;;;8.18;6.05;;;23.00;95.00;;;;;;5050552;28;20102;-74
2023/09/12 10:06:28;;;;;;;5.70;4.65;;;23.10;94.70;;;;;;5064104;28;20043;-77
2023/09/12 10:08:55;;;;;;;9.65;5.20;;;23.00;94.40;;;;;;5046680;28;20534;-76
2023/09/12 10:11:24;;;;;;;5.85;4.30;;;23.00;94.30;;;;;;5046783;28;20071;-75
2023/09/12 10:13:59;;;;;;;7.47;4.38;;;23.10;94.30;;;;;;5049837;28;20506;-75
2023/09/12 10:16:29;;;;;;;6.47;4.15;;;23.20;93.90;;;;;;5037158;28;20093;-76
2023/09/12 10:19:06;;;;;;;6.68;4.25;;;23.30;93.50;;;;;;5035201;28;20106;-77
2023/09/12 10:21:34;;;;;;;5.82;4.10;;;23.40;92.90;;;;;;5021907;28;20071;-76
2023/09/12 10:24:03;;;;;;;7.30;3.60;;;23.50;92.60;;;;;;5022142;28;20040;-76
2023/09/12 10:26:31;;;;;;;5.85;3.53;;;23.70;91.90;;;;;;5045960;28;20565;-77
2023/09/12 10:28:59;;;;;;;7.30;4.18;;;23.80;91.40;;;;;;5045001;28;20056;-73
2023/09/12 10:31:26;;;;;;;7.22;4.50;;;23.90;90.60;;;;;;5029711;28;20077;-77
2023/09/12 10:33:59;;;;;;;6.65;4.15;;;23.80;89.70;;;;;;5044869;28;20059;-76
2023/09/12 10:36:26;;;;;;;7.53;4.47;;;23.80;89.20;;;;;;5046011;28;20105;-76
2023/09/12 10:38:53;;;;;;;5.20;4.10;;;23.70;89.00;;;;;;5046829;28;20076;-75
2023/09/12 10:41:21;;;;;;;4.95;3.70;;;23.60;89.40;;;;;;5045083;28;20088;-76
2023/09/12 10:43:52;;;;;;;6.10;3.72;;;23.50;89.50;;;;;;5029206;28;20052;-76
2023/09/12 10:46:18;;;;;;;6.28;3.30;;;23.50;89.80;;;;;;5032079;28;20059;-75
2023/09/12 10:48:44;;;;;;;6.07;3.50;;;23.80;89.60;;;;;;5047503;28;20048;-76
2023/09/12 10:51:12;;;;;;;7.07;3.40;;;24.20;88.10;;;;;;5047923;28;20064;-76
2023/09/12 10:53:38;;;;;;;5.53;3.08;;;24.60;84.20;;;;;;5028972;28;20052;-76
2023/09/12 10:56:13;;;;;;;5.68;3.38;;;24.70;80.70;;;;;;5064803;28;20047;-76
2023/09/12 10:59:06;;;;;;;5.20;3.20;;;24.70;78.60;;;;;;5064364;28;20044;-76
2023/09/12 11:01:37;;;;;;;4.20;3.17;;;24.60;78.10;;;;;;5067645;28;20063;-77
2023/09/12 11:04:24;;;;;;;6.22;3.45;;;24.40;79.50;;;;;;5028619;28;20141;-76
2023/09/12 11:06:50;;;;;;;4.85;3.10;;;24.20;78.30;;;;;;5052754;28;20501;-76
2023/09/12 11:09:24;;;;;;;7.93;3.80;;;24.00;81.90;;;;;;5035327;28;20048;-76
2023/09/12 11:11:56;;;;;;;5.57;4.03;;;23.80;83.40;;;;;;5070375;28;20044;-76
2023/09/12 11:14:24;;;;;;;6.80;3.65;;;23.80;84.00;;;;;;5050683;28;20040;-76
2023/09/12 11:17:08;;;;;;;13.43;4.90;;;23.70;84.60;;;;;;5041241;28;20463;-76
2023/09/12 11:19:49;;;;;;;5.95;4.20;;;23.60;84.50;;;;;;5071353;28;20040;-76
2023/09/12 11:22:22;;;;;;;5.38;3.70;;;23.50;84.10;;;;;;5050652;28;20045;-75
2023/09/12 11:24:47;;;;;;;6.25;3.38;;;23.30;84.00;;;;;;5066889;28;20163;-76
2023/09/12 11:27:13;;;;;;;4.95;3.58;;;23.20;86.00;;;;;;5029877;28;20566;-76
2023/09/12 11:29:40;;;;;;;7.32;4.07;;;23.30;87.20;;;;;;5049727;28;20057;-76
2023/09/12 11:32:30;;;;;;;5.63;3.75;;;23.50;86.90;;;;;;5055805;28;20049;-75
2023/09/12 11:34:56;;;;;;;5.50;3.78;;;23.70;83.50;;;;;;5045992;28;20076;-76
2023/09/12 11:37:29;;;;;;;6.90;3.90;;;23.80;83.00;;;;;;5034396;28;20500;-76
2023/09/12 11:39:57;;;;;;;6.97;3.78;;;24.20;81.50;;;;;;5032449;28;20456;-75
2023/09/12 11:42:25;;;;;;;6.30;3.55;;;24.00;80.90;;;;;;5066320;28;20048;-76
2023/09/12 11:44:52;;;;;;;4.78;3.60;;;24.10;80.50;;;;;;5027526;28;20045;-76
2023/09/12 11:47:18;;;;;;;7.95;4.20;;;24.20;79.40;;;;;;5064806;28;20084;-77
2023/09/12 11:49:44;;;;;;;6.70;3.90;;;24.00;78.30;;;;;;5053795;28;20049;-76
2023/09/12 11:52:14;;;;;;;6.28;4.05;;;23.90;78.70;;;;;;5033797;28;20056;-76
2023/09/12 11:54:45;;;;;;;5.32;4.07;;;23.90;79.90;;;;;;5049353;28;20056;-76
2023/09/12 11:57:13;;;;;;;8.27;4.28;;;24.30;78.10;;;;;;5049956;28;20128;-76
2023/09/12 11:59:43;;;;;;;5.53;3.60;;;24.40;75.70;;;;;;5049360;28;20337;-76
2023/09/12 12:02:09;;;;;;;7.75;4.07;;;24.40;75.40;;;;;;5032951;28;20653;-76
2023/09/12 12:04:36;;;;;;;5.60;3.78;;;24.40;76.30;;;;;;5040294;28;20070;-75
2023/09/12 12:07:06;;;;;;;6.22;4.10;;;24.40;76.40;;;;;;5035528;28;20067;-76
2023/09/12 12:09:32;;;;;;;4.65;3.35;;;24.40;75.20;;;;;;5046047;28;20321;-76
2023/09/12 12:12:25;;;;;;;7.10;4.35;;;24.30;74.00;;;;;;5027077;28;20060;-76
2023/09/12 12:14:50;;;;;;;5.45;3.53;;;24.10;71.60;;;;;;5032330;28;20096;-76
2023/09/12 12:17:16;;;;;;;8.55;3.70;;;24.10;75.30;;;;;;5046269;28;20211;-76
2023/09/12 12:19:46;;;;;;;6.60;3.58;;;24.30;75.90;;;;;;5030215;28;20044;-77
2023/09/12 12:22:11;;;;;;;6.95;3.95;;;24.50;73.20;;;;;;5046209;28;20425;-77
2023/09/12 12:24:39;;;;;;;7.47;3.88;;;24.60;71.90;;;;;;5064260;28;20043;-77
2023/09/12 12:27:05;;;;;;;6.63;3.60;;;24.70;72.20;;;;;;5045140;28;20156;-77
2023/09/12 12:29:33;;;;;;;5.55;3.30;;;24.80;71.30;;;;;;5018853;28;20053;-76
2023/09/12 12:32:04;;;;;;;6.63;2.92;;;25.00;69.60;;;;;;5027763;28;20031;-77
2023/09/12 12:34:31;;;;;;;9.80;3.35;;;25.30;65.80;;;;;;5038655;28;20071;-76